Time;durP1;ratioP1;P1;durP2;ratioP2;P2;SDS_P1;SDS_P2;PMS_P1;PMS_P2;Temp;Humidity;BMP_temperature;BMP_pressure;BME280_temperature;BME280_humidity;BME280_pressure;Samples;Min_cycle;Max_cycle;Signal;HPM_P1;HPM_P2
2021/09/11 00:00:43;;;;;;;11.57;10.48;;;;;;;;;;5051460;28;20106;-72
2021/09/11 00:03:11;;;;;;;11.52;10.43;;;;;;;;;;5034116;28;20110;-72
2021/09/11 00:05:38;;;;;;;11.27;9.55;;;;;;;;;;5051752;28;20063;-71
2021/09/11 00:08:05;;;;;;;10.90;9.43;;;;;;;;;;5052031;28;20079;-71
2021/09/11 00:10:32;;;;;;;9.93;8.93;;;;;;;;;;5051871;28;20132;-71
2021/09/11 00:12:59;;;;;;;9.77;8.77;;;;;;;;;;5033676;28;20053;-71
2021/09/11 00:15:31;;;;;;;10.05;8.93;;;;;;;;;;5051752;28;20049;-71
2021/09/11 00:18:02;;;;;;;10.13;8.90;;;;;;;;;;5051692;28;20084;-71
2021/09/11 00:20:29;;;;;;;11.23;9.43;;;;;;;;;;5051707;28;20053;-71
2021/09/11 00:22:56;;;;;;;10.60;9.10;;;;;;;;;;5051318;28;20049;-71
2021/09/11 00:25:23;;;;;;;9.98;8.57;;;;;;;;;;5051703;28;20045;-71
2021/09/11 00:27:50;;;;;;;10.68;9.68;;;;;;;;;;5051367;28;20056;-71
2021/09/11 00:30:17;;;;;;;10.30;9.30;;;;;;;;;;5051683;28;20044;-72
2021/09/11 00:32:43;;;;;;;9.90;8.93;;;;;;;;;;5051248;28;20099;-71
2021/09/11 00:35:13;;;;;;;11.82;9.93;;;;;;;;;;5051391;28;20068;-72
2021/09/11 00:37:40;;;;;;;9.77;8.77;;;;;;;;;;5051446;28;20049;-71
2021/09/11 00:40:08;;;;;;;10.00;9.05;;;;;;;;;;5051471;28;20143;-72
2021/09/11 00:42:35;;;;;;;10.15;9.15;;;;;;;;;;5051204;28;20482;-72
2021/09/11 00:45:03;;;;;;;9.32;8.18;;;;;;;;;;5051450;28;20500;-72
2021/09/11 00:47:29;;;;;;;10.98;9.88;;;;;;;;;;5051468;28;20569;-71
2021/09/11 00:49:56;;;;;;;11.88;9.27;;;;;;;;;;5051013;28;20053;-71
2021/09/11 00:52:23;;;;;;;13.85;8.85;;;;;;;;;;5033328;28;20084;-71
2021/09/11 00:54:49;;;;;;;10.48;9.35;;;;;;;;;;5050841;28;20106;-71
2021/09/11 00:57:16;;;;;;;8.48;7.68;;;;;;;;;;5033116;28;20045;-71
2021/09/11 00:59:42;;;;;;;9.50;8.50;;;;;;;;;;5033483;28;20103;-71
2021/09/11 01:02:09;;;;;;;11.40;9.23;;;;;;;;;;5033232;28;20049;-71
2021/09/11 01:04:36;;;;;;;10.05;8.23;;;;;;;;;;5051069;28;20493;-71
2021/09/11 01:07:03;;;;;;;10.93;9.32;;;;;;;;;;5051230;28;20107;-70
2021/09/11 01:09:30;;;;;;;9.95;8.23;;;;;;;;;;5051288;28;20098;-71
2021/09/11 01:11:56;;;;;;;9.30;8.30;;;;;;;;;;5053824;28;20060;-71
2021/09/11 01:14:23;;;;;;;9.57;8.50;;;;;;;;;;5037293;28;20107;-71
2021/09/11 01:16:49;;;;;;;10.13;8.13;;;;;;;;;;5054482;28;20103;-72
2021/09/11 01:19:16;;;;;;;10.23;8.73;;;;;;;;;;5054829;28;20056;-71
2021/09/11 01:21:43;;;;;;;10.98;9.35;;;;;;;;;;5054775;28;20071;-71
2021/09/11 01:24:09;;;;;;;9.75;8.65;;;;;;;;;;5037138;28;20471;-71
2021/09/11 01:26:36;;;;;;;11.18;9.85;;;;;;;;;;5054819;28;20049;-71
2021/09/11 01:29:03;;;;;;;10.75;9.68;;;;;;;;;;5054679;28;20049;-71
2021/09/11 01:31:33;;;;;;;11.25;9.77;;;;;;;;;;5054706;28;20470;-71
2021/09/11 01:34:00;;;;;;;11.38;10.18;;;;;;;;;;5053355;28;20049;-71
2021/09/11 01:36:28;;;;;;;11.65;10.45;;;;;;;;;;5054657;28;20056;-71
2021/09/11 01:38:55;;;;;;;12.07;10.77;;;;;;;;;;5036573;28;20404;-71
2021/09/11 01:41:21;;;;;;;11.73;10.43;;;;;;;;;;5054495;28;20118;-71
2021/09/11 01:43:48;;;;;;;11.32;10.23;;;;;;;;;;5054290;28;20048;-71
2021/09/11 01:46:15;;;;;;;11.82;10.05;;;;;;;;;;5054706;28;20057;-70
2021/09/11 01:48:41;;;;;;;12.32;10.68;;;;;;;;;;5054439;28;20052;-71
2021/09/11 01:51:08;;;;;;;13.70;10.32;;;;;;;;;;5020414;28;20488;-72
2021/09/11 01:53:35;;;;;;;11.40;10.20;;;;;;;;;;5053939;28;20126;-71
2021/09/11 01:56:01;;;;;;;11.52;10.18;;;;;;;;;;5054156;28;20053;-71
2021/09/11 01:58:28;;;;;;;12.05;10.88;;;;;;;;;;5054256;28;20466;-71
2021/09/11 02:00:54;;;;;;;11.95;10.75;;;;;;;;;;5054088;28;20060;-72
2021/09/11 02:03:21;;;;;;;12.07;10.80;;;;;;;;;;5053890;28;20049;-71
2021/09/11 02:05:48;;;;;;;11.80;10.63;;;;;;;;;;5054069;28;20095;-71
2021/09/11 02:08:15;;;;;;;12.07;10.75;;;;;;;;;;5054048;28;20057;-73
2021/09/11 02:10:42;;;;;;;10.40;9.02;;;;;;;;;;5053868;28;20053;-71
2021/09/11 02:13:08;;;;;;;10.60;8.57;;;;;;;;;;5053678;28;20048;-71
2021/09/11 02:15:35;;;;;;;9.40;8.35;;;;;;;;;;5053662;28;20564;-72
2021/09/11 02:18:02;;;;;;;10.00;9.00;;;;;;;;;;5053927;28;20243;-72
2021/09/11 02:20:28;;;;;;;14.73;9.20;;;;;;;;;;5036177;28;20454;-72
2021/09/11 02:22:55;;;;;;;10.43;9.02;;;;;;;;;;5052707;28;20103;-73
2021/09/11 02:25:21;;;;;;;9.00;8.13;;;;;;;;;;5053762;28;20041;-72
2021/09/11 02:27:48;;;;;;;10.82;9.27;;;;;;;;;;5053769;28;20075;-72
2021/09/11 02:30:15;;;;;;;10.15;9.15;;;;;;;;;;5053514;28;20511;-71
2021/09/11 02:32:41;;;;;;;11.07;9.82;;;;;;;;;;5053381;28;20064;-72
2021/09/11 02:35:08;;;;;;;10.32;9.25;;;;;;;;;;5053417;28;20119;-71
2021/09/11 02:37:35;;;;;;;10.95;9.85;;;;;;;;;;5053737;28;20049;-71
2021/09/11 02:40:02;;;;;;;10.60;9.57;;;;;;;;;;5053360;28;20049;-72
2021/09/11 02:42:29;;;;;;;10.88;9.77;;;;;;;;;;5053133;28;20048;-71
2021/09/11 02:44:56;;;;;;;10.65;9.57;;;;;;;;;;5053328;28;20076;-72
2021/09/11 02:47:22;;;;;;;9.88;8.98;;;;;;;;;;5035488;28;20094;-71
2021/09/11 02:49:49;;;;;;;10.10;9.20;;;;;;;;;;5053378;28;20053;-72
2021/09/11 02:52:15;;;;;;;10.02;9.02;;;;;;;;;;5052910;28;20053;-71
2021/09/11 02:54:43;;;;;;;9.93;8.77;;;;;;;;;;5035159;28;20045;-72
2021/09/11 02:57:10;;;;;;;10.90;9.52;;;;;;;;;;5053262;28;20059;-71
2021/09/11 02:59:36;;;;;;;9.52;8.63;;;;;;;;;;5052955;28;20125;-72
2021/09/11 03:02:03;;;;;;;9.43;8.45;;;;;;;;;;5052796;28;20075;-71
2021/09/11 03:04:30;;;;;;;9.77;8.73;;;;;;;;;;5052774;28;20095;-72
2021/09/11 03:06:57;;;;;;;9.02;8.13;;;;;;;;;;5035725;28;20057;-72
2021/09/11 03:09:23;;;;;;;9.88;8.55;;;;;;;;;;5052880;28;20049;-72
2021/09/11 03:11:50;;;;;;;9.70;8.65;;;;;;;;;;5052592;28;20558;-71
2021/09/11 03:14:16;;;;;;;8.98;8.07;;;;;;;;;;5052583;28;20099;-71
2021/09/11 03:16:43;;;;;;;9.10;7.88;;;;;;;;;;5052514;28;20451;-71
2021/09/11 03:19:10;;;;;;;8.70;7.43;;;;;;;;;;5052773;28;20052;-72
2021/09/11 03:21:36;;;;;;;9.45;8.45;;;;;;;;;;5052791;28;20483;-71
2021/09/11 03:24:03;;;;;;;9.25;7.65;;;;;;;;;;5052345;28;20492;-72
2021/09/11 03:26:30;;;;;;;7.53;6.82;;;;;;;;;;5052450;28;20496;-71
2021/09/11 03:28:56;;;;;;;8.02;7.10;;;;;;;;;;5052309;28;20702;-72
2021/09/11 03:31:23;;;;;;;7.78;7.07;;;;;;;;;;5052420;28;20048;-71
2021/09/11 03:33:50;;;;;;;7.82;7.07;;;;;;;;;;5051382;28;20052;-71
2021/09/11 03:36:16;;;;;;;10.07;7.57;;;;;;;;;;5051905;28;20087;-71
2021/09/11 03:38:43;;;;;;;7.85;7.15;;;;;;;;;;5052075;28;20048;-70
2021/09/11 03:41:10;;;;;;;9.00;8.10;;;;;;;;;;5052227;28;20053;-71
2021/09/11 03:43:37;;;;;;;7.97;6.97;;;;;;;;;;5051794;28;20564;-71
2021/09/11 03:46:03;;;;;;;8.05;7.25;;;;;;;;;;5034424;28;20076;-71
2021/09/11 03:48:30;;;;;;;7.93;7.15;;;;;;;;;;5034825;28;20053;-72
2021/09/11 03:50:57;;;;;;;7.00;6.40;;;;;;;;;;5052075;28;20340;-72
2021/09/11 03:53:24;;;;;;;8.10;7.25;;;;;;;;;;5051693;28;20056;-71
2021/09/11 03:55:51;;;;;;;8.27;7.47;;;;;;;;;;5052747;28;20075;-71
2021/09/11 03:58:17;;;;;;;7.28;6.60;;;;;;;;;;5055494;28;20053;-71
2021/09/11 04:00:44;;;;;;;8.10;7.30;;;;;;;;;;5055773;28;20488;-71
2021/09/11 04:03:11;;;;;;;7.82;7.03;;;;;;;;;;5066654;28;20044;-71
2021/09/11 04:05:37;;;;;;;7.53;6.82;;;;;;;;;;5077060;28;20033;-69
2021/09/11 04:08:04;;;;;;;7.30;6.60;;;;;;;;;;5076125;28;20036;-70
2021/09/11 04:10:31;;;;;;;7.50;6.43;;;;;;;;;;5075732;28;20059;-71
2021/09/11 04:12:57;;;;;;;7.50;6.80;;;;;;;;;;5073034;28;20055;-71
2021/09/11 04:15:24;;;;;;;9.02;7.97;;;;;;;;;;5072737;28;20048;-70
2021/09/11 04:17:51;;;;;;;9.20;8.25;;;;;;;;;;5070376;28;20512;-70
2021/09/11 04:20:17;;;;;;;9.13;7.68;;;;;;;;;;5070771;28;20049;-72
2021/09/11 04:22:44;;;;;;;9.73;7.97;;;;;;;;;;5069670;28;20048;-70
2021/09/11 04:25:11;;;;;;;10.10;8.48;;;;;;;;;;5072225;28;20045;-71
2021/09/11 04:27:38;;;;;;;10.43;8.25;;;;;;;;;;5072028;28;20114;-70
2021/09/11 04:30:05;;;;;;;9.18;7.50;;;;;;;;;;5074366;28;20071;-71
2021/09/11 04:32:32;;;;;;;9.02;8.10;;;;;;;;;;5071747;28;20570;-71
2021/09/11 04:34:59;;;;;;;11.43;8.20;;;;;;;;;;5072518;28;20059;-71
2021/09/11 04:37:25;;;;;;;15.70;9.60;;;;;;;;;;5073654;28;20049;-71
2021/09/11 04:39:52;;;;;;;10.10;7.95;;;;;;;;;;5075149;28;20063;-71
2021/09/11 04:42:19;;;;;;;10.18;8.30;;;;;;;;;;5072527;28;20067;-71
2021/09/11 04:44:45;;;;;;;11.35;8.80;;;;;;;;;;5069577;28;20049;-72
2021/09/11 04:47:14;;;;;;;9.57;8.57;;;;;;;;;;5056673;28;20053;-71
2021/09/11 04:49:41;;;;;;;10.13;9.13;;;;;;;;;;5047796;28;20109;-70
2021/09/11 04:52:07;;;;;;;10.93;9.82;;;;;;;;;;5070499;28;20103;-71
2021/09/11 04:54:34;;;;;;;11.93;10.73;;;;;;;;;;5061408;28;20048;-71
2021/09/11 04:57:01;;;;;;;15.50;13.05;;;;;;;;;;5056582;28;20117;-69
2021/09/11 04:59:28;;;;;;;14.50;13.05;;;;;;;;;;5054224;28;20511;-71
2021/09/11 05:01:56;;;;;;;17.38;14.00;;;;;;;;;;5058853;28;20048;-71
2021/09/11 05:04:27;;;;;;;17.35;14.60;;;;;;;;;;5058055;28;20109;-72
2021/09/11 05:06:54;;;;;;;14.85;13.27;;;;;;;;;;5053963;28;20075;-70
2021/09/11 05:09:21;;;;;;;15.35;13.70;;;;;;;;;;5071160;28;20079;-71
2021/09/11 05:11:47;;;;;;;16.83;14.07;;;;;;;;;;5058761;28;20063;-71
2021/09/11 05:14:14;;;;;;;16.75;14.18;;;;;;;;;;5070764;28;20049;-71
2021/09/11 05:16:42;;;;;;;16.17;14.48;;;;;;;;;;5070139;28;20053;-71
2021/09/11 05:19:08;;;;;;;15.68;13.85;;;;;;;;;;5054401;28;20073;-72
2021/09/11 05:21:35;;;;;;;18.15;15.18;;;;;;;;;;5064281;28;20056;-72
2021/09/11 05:24:02;;;;;;;14.73;13.23;;;;;;;;;;5067495;28;20061;-70
2021/09/11 05:26:29;;;;;;;16.42;13.43;;;;;;;;;;5050766;28;20049;-71
2021/09/11 05:28:56;;;;;;;14.95;13.45;;;;;;;;;;5067884;28;20136;-71
2021/09/11 05:31:23;;;;;;;18.58;15.02;;;;;;;;;;5062001;28;20042;-71
2021/09/11 05:33:50;;;;;;;18.58;14.95;;;;;;;;;;5055004;28;20466;-71
2021/09/11 05:36:17;;;;;;;17.58;14.75;;;;;;;;;;5054843;28;20041;-72
2021/09/11 05:38:43;;;;;;;19.63;14.73;;;;;;;;;;5054791;28;20053;-72
2021/09/11 05:41:10;;;;;;;17.30;14.75;;;;;;;;;;5054869;28;20504;-71
2021/09/11 05:43:36;;;;;;;16.20;13.35;;;;;;;;;;5054604;28;20045;-72
2021/09/11 05:46:03;;;;;;;15.73;13.70;;;;;;;;;;5054430;28;20041;-72
2021/09/11 05:48:30;;;;;;;15.55;13.95;;;;;;;;;;5054483;28;20048;-72
2021/09/11 05:50:56;;;;;;;14.35;12.85;;;;;;;;;;5054420;28;20052;-71
2021/09/11 05:53:23;;;;;;;17.15;14.68;;;;;;;;;;5054224;28;20049;-71
2021/09/11 05:55:49;;;;;;;18.30;15.85;;;;;;;;;;5054202;28;20491;-73
2021/09/11 05:58:16;;;;;;;16.73;14.95;;;;;;;;;;5053335;28;20053;-71
2021/09/11 06:00:43;;;;;;;17.02;14.93;;;;;;;;;;5054212;28;20095;-72
2021/09/11 06:03:10;;;;;;;15.10;13.50;;;;;;;;;;5051570;28;20106;-72
2021/09/11 06:05:37;;;;;;;15.02;13.32;;;;;;;;;;5052058;28;20068;-71
2021/09/11 06:08:04;;;;;;;15.35;13.75;;;;;;;;;;5052046;28;20476;-73
2021/09/11 06:10:31;;;;;;;17.98;14.93;;;;;;;;;;5051980;28;20099;-72
2021/09/11 06:12:59;;;;;;;18.77;14.75;;;;;;;;;;5051615;28;20048;-72
2021/09/11 06:15:26;;;;;;;16.13;14.00;;;;;;;;;;5051477;28;20053;-72
2021/09/11 06:17:53;;;;;;;15.13;13.50;;;;;;;;;;5051780;28;20061;-72
2021/09/11 06:20:19;;;;;;;13.85;12.40;;;;;;;;;;5034191;28;20098;-72
2021/09/11 06:22:46;;;;;;;11.93;10.73;;;;;;;;;;5051268;28;20057;-72
2021/09/11 06:25:14;;;;;;;12.13;10.68;;;;;;;;;;5051633;28;20700;-72
2021/09/11 06:27:41;;;;;;;14.63;10.68;;;;;;;;;;5051444;28;20048;-72
2021/09/11 06:30:09;;;;;;;12.75;9.70;;;;;;;;;;5051204;28;20083;-72
2021/09/11 06:32:35;;;;;;;12.18;10.93;;;;;;;;;;5051339;28;20053;-71
2021/09/11 06:35:03;;;;;;;11.40;10.10;;;;;;;;;;5051505;28;20053;-72
2021/09/11 06:37:30;;;;;;;11.90;10.70;;;;;;;;;;5051687;28;20106;-73
2021/09/11 06:39:58;;;;;;;13.80;12.45;;;;;;;;;;5051413;28;20053;-72
2021/09/11 06:42:24;;;;;;;14.98;13.23;;;;;;;;;;5051056;28;20094;-72
2021/09/11 06:44:51;;;;;;;14.82;13.13;;;;;;;;;;5051124;28;20492;-72
2021/09/11 06:47:18;;;;;;;15.80;12.48;;;;;;;;;;5051562;28;20462;-72
2021/09/11 06:49:44;;;;;;;14.50;11.85;;;;;;;;;;5051071;28;20045;-72
2021/09/11 06:52:11;;;;;;;12.65;11.13;;;;;;;;;;5051161;28;20048;-73
2021/09/11 06:54:38;;;;;;;11.15;10.05;;;;;;;;;;5016228;28;20516;-69
2021/09/11 06:57:04;;;;;;;9.60;8.60;;;;;;;;;;5051797;28;20045;-72
2021/09/11 06:59:31;;;;;;;8.20;7.40;;;;;;;;;;5034973;28;20051;-68
2021/09/11 07:01:58;;;;;;;8.25;7.45;;;;;;;;;;5046557;28;20801;-67
2021/09/11 07:04:25;;;;;;;9.40;5.78;;;;;;;;;;5045726;28;20416;-68
2021/09/11 07:06:51;;;;;;;6.40;5.80;;;;;;;;;;5046017;28;20045;-70
2021/09/11 07:09:18;;;;;;;9.27;5.88;;;;;;;;;;5021389;28;20049;-71
2021/09/11 07:11:45;;;;;;;5.47;4.97;;;;;;;;;;5041218;28;20053;-71
2021/09/11 07:14:15;;;;;;;6.18;5.57;;;;;;;;;;5039021;28;20136;-70
2021/09/11 07:16:43;;;;;;;6.75;5.75;;;;;;;;;;5043328;28;20093;-71
2021/09/11 07:19:10;;;;;;;7.57;5.70;;;;;;;;;;5023083;28;20103;-71
2021/09/11 07:21:38;;;;;;;6.18;4.55;;;;;;;;;;5041300;28;20103;-69
2021/09/11 07:24:05;;;;;;;6.10;4.90;;;;;;;;;;5036900;28;20555;-69
2021/09/11 07:26:31;;;;;;;5.38;4.88;;;;;;;;;;5037240;28;20041;-68
2021/09/11 07:28:58;;;;;;;6.88;5.50;;;;;;;;;;5041753;28;20053;-68
2021/09/11 07:31:25;;;;;;;4.38;3.97;;;;;;;;;;5037373;28;20041;-68
2021/09/11 07:33:51;;;;;;;5.45;3.70;;;;;;;;;;5036283;28;20045;-70
2021/09/11 07:36:18;;;;;;;6.68;5.63;;;;;;;;;;5020038;28;20519;-71
2021/09/11 07:38:45;;;;;;;6.03;5.15;;;;;;;;;;5039106;28;20518;-71
2021/09/11 07:41:12;;;;;;;6.97;4.97;;;;;;;;;;5037304;28;20049;-71
2021/09/11 07:43:39;;;;;;;5.13;4.45;;;;;;;;;;5038625;28;20400;-68
2021/09/11 07:46:05;;;;;;;5.00;4.35;;;;;;;;;;5037557;28;20050;-68
2021/09/11 07:48:32;;;;;;;6.28;5.25;;;;;;;;;;5038443;28;20086;-68
2021/09/11 07:51:00;;;;;;;5.30;4.78;;;;;;;;;;5038483;28;20055;-72
2021/09/11 07:53:27;;;;;;;5.32;4.60;;;;;;;;;;5044093;28;20113;-73
2021/09/11 07:55:54;;;;;;;5.75;5.00;;;;;;;;;;5047973;28;20076;-71
2021/09/11 07:58:21;;;;;;;6.88;4.90;;;;;;;;;;5039560;28;20049;-72
2021/09/11 08:00:47;;;;;;;5.03;4.35;;;;;;;;;;5038422;28;20107;-71
2021/09/11 08:03:14;;;;;;;3.85;3.45;;;;;;;;;;5033200;28;20056;-70
2021/09/11 08:05:42;;;;;;;4.30;3.80;;;;;;;;;;5039865;28;20268;-73
2021/09/11 08:08:08;;;;;;;4.57;4.18;;;;;;;;;;5019397;28;20081;-73
2021/09/11 08:10:35;;;;;;;6.60;4.18;;;;;;;;;;5038501;28;20095;-72
2021/09/11 08:13:02;;;;;;;5.78;5.03;;;;;;;;;;5036506;28;20496;-71
2021/09/11 08:15:28;;;;;;;4.63;4.22;;;;;;;;;;5038542;28;20053;-71
2021/09/11 08:17:55;;;;;;;4.90;3.97;;;;;;;;;;5019182;28;20057;-71
2021/09/11 08:20:22;;;;;;;3.88;3.58;;;;;;;;;;5038007;28;20048;-70
2021/09/11 08:22:49;;;;;;;3.58;3.28;;;;;;;;;;5035966;28;20562;-72
2021/09/11 08:25:16;;;;;;;3.60;3.10;;;;;;;;;;5036364;28;20487;-72
2021/09/11 08:27:43;;;;;;;3.58;3.28;;;;;;;;;;5038591;28;20053;-73
2021/09/11 08:30:10;;;;;;;4.57;4.18;;;;;;;;;;5040173;28;20454;-76
2021/09/11 08:32:38;;;;;;;3.88;3.55;;;;;;;;;;5021768;28;20050;-76
2021/09/11 08:35:08;;;;;;;3.60;3.30;;;;;;;;;;5037450;28;20485;-75
2021/09/11 08:37:35;;;;;;;4.43;3.42;;;;;;;;;;5036515;28;20045;-75
2021/09/11 08:40:02;;;;;;;4.88;3.10;;;;;;;;;;5034173;28;20049;-77
2021/09/11 08:42:29;;;;;;;4.10;3.67;;;;;;;;;;5004533;28;20111;-74
2021/09/11 08:44:55;;;;;;;3.38;3.08;;;;;;;;;;5009719;28;20079;-77
2021/09/11 08:47:22;;;;;;;2.80;2.60;;;;;;;;;;5011874;28;20045;-79
2021/09/11 08:49:48;;;;;;;4.35;2.65;;;;;;;;;;5042404;28;20164;-75
2021/09/11 08:52:15;;;;;;;2.83;2.50;;;;;;;;;;5022943;28;20049;-75
2021/09/11 08:54:42;;;;;;;3.55;2.63;;;;;;;;;;5019122;28;20057;-75
2021/09/11 08:57:27;;;;;;;3.55;3.22;;;;;;;;;;5037940;28;20051;-75
2021/09/11 08:59:54;;;;;;;4.20;3.80;;;;;;;;;;5040188;28;20050;-73
2021/09/11 09:02:23;;;;;;;5.95;3.72;;;;;;;;;;5003302;28;20535;-76
2021/09/11 09:04:53;;;;;;;3.50;3.10;;;;;;;;;;5023533;28;20041;-77
2021/09/11 09:07:38;;;;;;;3.72;3.42;;;;;;;;;;5050108;23;20037;-68
2021/09/11 09:10:08;;;;;;;4.50;3.22;;;;;;;;;;5037566;28;20507;-66
2021/09/11 09:12:42;;;;;;;3.85;3.50;;;;;;;;;;5037844;28;20103;-68
2021/09/11 09:15:11;;;;;;;4.13;3.42;;;;;;;;;;5037269;28;20392;-65
2021/09/11 09:17:49;;;;;;;3.45;3.15;;;;;;;;;;5036110;28;20087;-66
2021/09/11 09:20:20;;;;;;;8.38;4.45;;;;;;;;;;5018993;28;20045;-66
2021/09/11 09:23:07;;;;;;;8.43;4.35;;;;;;;;;;5036079;28;20095;-70
2021/09/11 09:25:36;;;;;;;5.68;3.83;;;;;;;;;;5032741;28;20072;-67
2021/09/11 09:28:10;;;;;;;4.63;3.88;;;;;;;;;;5038456;28;20522;-68
2021/09/11 09:30:45;;;;;;;4.43;4.03;;;;;;;;;;5019201;28;20103;-68
2021/09/11 09:33:19;;;;;;;4.50;3.58;;;;;;;;;;5037147;28;20053;-68
2021/09/11 09:35:46;;;;;;;5.30;3.72;;;;;;;;;;5035236;28;20048;-68
2021/09/11 09:38:13;;;;;;;4.03;3.15;;;;;;;;;;5041493;28;20090;-67
2021/09/11 09:40:44;;;;;;;4.13;2.80;;;;;;;;;;5041942;28;20041;-66
2021/09/11 09:43:35;;;;;;;5.75;3.20;;;;;;;;;;5040989;28;20153;-66
2021/09/11 09:46:14;;;;;;;3.45;2.95;;;;;;;;;;5010456;28;20569;-66
2021/09/11 09:48:44;;;;;;;3.40;2.80;;;;;;;;;;5034188;28;20132;-68
2021/09/11 09:51:13;;;;;;;3.35;2.80;;;;;;;;;;5036701;28;20491;-67
2021/09/11 09:53:42;;;;;;;4.30;2.55;;;;;;;;;;5034326;28;20045;-67
2021/09/11 09:56:09;;;;;;;3.33;2.90;;;;;;;;;;5039498;28;20053;-66
2021/09/11 09:58:36;;;;;;;5.50;2.92;;;;;;;;;;5043436;28;20104;-66
2021/09/11 10:01:04;;;;;;;3.45;2.40;;;;;;;;;;5037419;28;20052;-65
2021/09/11 10:03:32;;;;;;;2.53;2.30;;;;;;;;;;5039766;28;20053;-67
2021/09/11 10:06:29;;;;;;;2.80;2.10;;;;;;;;;;5039042;28;20059;-66
2021/09/11 10:08:58;;;;;;;4.68;2.75;;;;;;;;;;5039695;28;20049;-65
2021/09/11 10:11:39;;;;;;;4.50;2.75;;;;;;;;;;4993408;28;20495;-66
2021/09/11 10:14:13;;;;;;;2.97;2.20;;;;;;;;;;5038695;28;20057;-66
2021/09/11 10:16:43;;;;;;;3.63;2.70;;;;;;;;;;5036427;28;20045;-65
2021/09/11 10:19:21;;;;;;;2.80;2.53;;;;;;;;;;5040717;28;20047;-65
2021/09/11 10:22:14;;;;;;;3.28;2.70;;;;;;;;;;5035972;28;20049;-65
2021/09/11 10:24:41;;;;;;;3.30;3.00;;;;;;;;;;5034611;28;20095;-66
2021/09/11 10:27:11;;;;;;;4.78;2.95;;;;;;;;;;5036303;28;20049;-65
2021/09/11 10:29:46;;;;;;;4.25;2.72;;;;;;;;;;5037385;28;20453;-66
2021/09/11 10:32:14;;;;;;;3.45;2.40;;;;;;;;;;5032217;28;20060;-66
2021/09/11 10:35:03;;;;;;;3.72;2.72;;;;;;;;;;5039898;28;20447;-65
2021/09/11 10:37:31;;;;;;;4.07;2.33;;;;;;;;;;5040449;28;20099;-65
2021/09/11 10:40:36;;;;;;;3.20;2.90;;;;;;;;;;5033693;28;20507;-66
2021/09/11 10:43:23;;;;;;;3.47;2.33;;;;;;;;;;5033922;28;20492;-66
2021/09/11 10:45:53;;;;;;;3.95;2.33;;;;;;;;;;5033375;28;20704;-65
2021/09/11 10:48:33;;;;;;;2.97;2.20;;;;;;;;;;5037961;28;20133;-65
2021/09/11 10:51:17;;;;;;;3.40;2.22;;;;;;;;;;5038041;28;20504;-65
2021/09/11 10:54:09;;;;;;;5.95;2.55;;;;;;;;;;5038157;28;20052;-65
2021/09/11 10:56:37;;;;;;;3.35;2.30;;;;;;;;;;5039763;28;20046;-65
2021/09/11 11:02:16;;;;;;;3.45;2.47;;;;;;;;;;5040008;28;20466;-66
2021/09/11 11:04:46;;;;;;;2.20;2.00;;;;;;;;;;5039100;28;20088;-65
2021/09/11 11:07:20;;;;;;;2.05;1.88;;;;;;;;;;5047483;23;20118;-66
2021/09/11 11:10:08;;;;;;;2.70;2.30;;;;;;;;;;5050443;28;20061;-65
2021/09/11 11:12:46;;;;;;;3.75;2.90;;;;;;;;;;5048810;28;20660;-65
2021/09/11 11:15:17;;;;;;;2.35;2.10;;;;;;;;;;5050937;28;20056;-65
2021/09/11 11:17:45;;;;;;;2.85;2.53;;;;;;;;;;5047895;28;20045;-65
2021/09/11 11:20:15;;;;;;;3.83;2.60;;;;;;;;;;5051041;28;20510;-65
2021/09/11 11:22:43;;;;;;;3.65;3.00;;;;;;;;;;5050864;28;20052;-65
2021/09/11 11:25:35;;;;;;;6.68;4.80;;;;;;;;;;5050578;28;20565;-65
2021/09/11 11:28:03;;;;;;;6.18;4.53;;;;;;;;;;5048406;28;20075;-64
2021/09/11 11:30:30;;;;;;;4.32;3.10;;;;;;;;;;5050732;28;20052;-65
2021/09/11 11:33:00;;;;;;;3.60;2.95;;;;;;;;;;5048854;28;20503;-64
2021/09/11 11:35:28;;;;;;;4.18;3.00;;;;;;;;;;5050225;28;20521;-64
2021/09/11 11:37:54;;;;;;;3.65;2.55;;;;;;;;;;5050524;28;20049;-64
2021/09/11 11:40:21;;;;;;;4.80;2.50;;;;;;;;;;5051003;28;20049;-64
2021/09/11 11:42:48;;;;;;;2.60;2.40;;;;;;;;;;5049786;28;20053;-64
2021/09/11 11:45:16;;;;;;;4.00;2.83;;;;;;;;;;5050283;28;20087;-65
2021/09/11 11:47:55;;;;;;;3.38;2.45;;;;;;;;;;5050742;28;20044;-64
2021/09/11 11:50:47;;;;;;;3.58;2.63;;;;;;;;;;5049738;28;20114;-64
2021/09/11 11:53:18;;;;;;;4.40;3.33;;;;;;;;;;5048775;28;20052;-64
2021/09/11 11:55:48;;;;;;;5.22;3.85;;;;;;;;;;5049035;28;20447;-64
2021/09/11 11:58:20;;;;;;;4.22;3.30;;;;;;;;;;5048641;28;20041;-64
2021/09/11 12:00:50;;;;;;;4.85;3.70;;;;;;;;;;5050412;28;20057;-64
2021/09/11 12:03:45;;;;;;;5.72;4.00;;;;;;;;;;5050403;28;20053;-64
2021/09/11 12:06:15;;;;;;;5.32;3.92;;;;;;;;;;5050413;28;20041;-64
2021/09/11 12:08:42;;;;;;;4.28;3.10;;;;;;;;;;5048004;28;20052;-65
2021/09/11 12:11:16;;;;;;;5.75;3.83;;;;;;;;;;5050449;28;20057;-64
2021/09/11 12:13:48;;;;;;;6.88;3.70;;;;;;;;;;5049758;28;20057;-64
2021/09/11 12:16:18;;;;;;;4.25;3.33;;;;;;;;;;5050340;28;20122;-64
2021/09/11 12:18:45;;;;;;;2.90;2.45;;;;;;;;;;5022962;28;20053;-66
2021/09/11 12:21:14;;;;;;;2.92;1.67;;;;;;;;;;5050588;28;20178;-64
2021/09/11 12:23:48;;;;;;;2.10;1.80;;;;;;;;;;5049512;28;20068;-65
2021/09/11 12:26:16;;;;;;;3.28;1.50;;;;;;;;;;5048942;28;20045;-64
2021/09/11 12:28:50;;;;;;;2.50;1.40;;;;;;;;;;5046814;28;20045;-69
2021/09/11 12:31:20;;;;;;;1.55;1.30;;;;;;;;;;5047077;28;20114;-67
2021/09/11 12:33:58;;;;;;;1.83;0.88;;;;;;;;;;5049879;28;20053;-67
2021/09/11 12:36:32;;;;;;;1.70;1.23;;;;;;;;;;5049710;28;20045;-64
2021/09/11 12:39:20;;;;;;;2.90;1.10;;;;;;;;;;5047119;28;20049;-68
2021/09/11 12:41:51;;;;;;;3.20;1.80;;;;;;;;;;5048978;28;20049;-64
2021/09/11 12:44:32;;;;;;;2.17;1.80;;;;;;;;;;5049589;28;20098;-68
2021/09/11 12:47:03;;;;;;;2.22;1.70;;;;;;;;;;5049608;28;20041;-66
2021/09/11 12:49:31;;;;;;;2.65;1.80;;;;;;;;;;5050008;28;20110;-68
2021/09/11 12:51:58;;;;;;;1.83;1.73;;;;;;;;;;5049609;28;20689;-68
2021/09/11 12:54:25;;;;;;;2.38;1.60;;;;;;;;;;5044366;28;20353;-67
2021/09/11 12:56:53;;;;;;;3.30;1.90;;;;;;;;;;5049725;28;20316;-67
2021/09/11 12:59:20;;;;;;;2.80;2.53;;;;;;;;;;5030208;28;20048;-69
2021/09/11 13:01:48;;;;;;;4.65;2.35;;;;;;;;;;5049469;28;20442;-66
2021/09/11 13:04:16;;;;;;;3.25;2.53;;;;;;;;;;5049496;28;20049;-66
2021/09/11 13:06:44;;;;;;;2.70;2.50;;;;;;;;;;5048673;28;20106;-67
2021/09/11 13:09:13;;;;;;;2.30;2.00;;;;;;;;;;5052599;28;20087;-67
2021/09/11 13:11:40;;;;;;;3.10;2.40;;;;;;;;;;5053848;28;20048;-69
2021/09/11 13:14:07;;;;;;;4.97;2.47;;;;;;;;;;5053213;28;20049;-66
2021/09/11 13:16:35;;;;;;;2.72;2.47;;;;;;;;;;5019958;28;20045;-67
2021/09/11 13:19:02;;;;;;;2.40;2.20;;;;;;;;;;5053065;28;20216;-68
2021/09/11 13:21:29;;;;;;;2.38;2.17;;;;;;;;;;5045543;28;20049;-67
2021/09/11 13:23:59;;;;;;;2.67;2.45;;;;;;;;;;5052314;28;20055;-67
2021/09/11 13:26:27;;;;;;;3.83;3.05;;;;;;;;;;5052963;28;20515;-67
2021/09/11 13:28:54;;;;;;;2.22;2.03;;;;;;;;;;5052572;28;20098;-65
2021/09/11 13:31:22;;;;;;;3.17;1.90;;;;;;;;;;5053008;28;20044;-66
2021/09/11 13:33:50;;;;;;;2.05;1.85;;;;;;;;;;5052824;28;20499;-67
2021/09/11 13:36:18;;;;;;;1.90;1.80;;;;;;;;;;5052181;28;20215;-70
2021/09/11 13:38:45;;;;;;;1.70;1.60;;;;;;;;;;5052936;28;20519;-67
2021/09/11 13:41:16;;;;;;;3.05;1.77;;;;;;;;;;5052831;28;20335;-71
2021/09/11 13:43:43;;;;;;;1.83;1.70;;;;;;;;;;5048880;28;20049;-71
2021/09/11 13:46:10;;;;;;;3.45;1.45;;;;;;;;;;5052750;28;20486;-70
2021/09/11 13:48:38;;;;;;;1.23;1.10;;;;;;;;;;5052161;28;20056;-69
2021/09/11 13:51:05;;;;;;;2.33;1.45;;;;;;;;;;5052856;28;20045;-69
2021/09/11 13:53:32;;;;;;;1.45;1.35;;;;;;;;;;5052408;28;20053;-70
2021/09/11 13:55:58;;;;;;;1.58;1.30;;;;;;;;;;5052766;28;20053;-70
2021/09/11 13:58:25;;;;;;;1.40;1.20;;;;;;;;;;5051038;28;20037;-69
2021/09/11 14:00:52;;;;;;;1.98;1.60;;;;;;;;;;5051554;28;20048;-69
2021/09/11 14:03:20;;;;;;;1.70;1.60;;;;;;;;;;5052112;28;20172;-70
2021/09/11 14:05:48;;;;;;;4.75;2.40;;;;;;;;;;5052499;28;20060;-68
2021/09/11 14:08:14;;;;;;;1.60;1.50;;;;;;;;;;5052339;28;20052;-69
2021/09/11 14:10:41;;;;;;;2.30;1.85;;;;;;;;;;5052257;28;20514;-70
2021/09/11 14:13:07;;;;;;;2.10;1.90;;;;;;;;;;5051871;28;20049;-69
2021/09/11 14:15:34;;;;;;;2.10;1.88;;;;;;;;;;5052240;28;20103;-69
2021/09/11 14:18:01;;;;;;;1.67;1.58;;;;;;;;;;5051265;28;20135;-69
2021/09/11 14:20:28;;;;;;;2.35;2.00;;;;;;;;;;5024828;28;20106;-68
2021/09/11 14:22:55;;;;;;;4.93;2.63;;;;;;;;;;5051600;28;20052;-69
2021/09/11 14:25:21;;;;;;;2.35;1.80;;;;;;;;;;5052229;28;20446;-65
2021/09/11 14:27:48;;;;;;;2.35;2.15;;;;;;;;;;5030195;28;20107;-65
2021/09/11 14:30:17;;;;;;;3.35;2.03;;;;;;;;;;5049241;28;20450;-66
2021/09/11 14:32:44;;;;;;;2.63;2.10;;;;;;;;;;5031779;28;20049;-65
2021/09/11 14:35:11;;;;;;;2.42;1.92;;;;;;;;;;5048343;28;20056;-64
2021/09/11 14:37:38;;;;;;;2.55;2.05;;;;;;;;;;5031991;28;20045;-65
2021/09/11 14:40:06;;;;;;;2.97;1.92;;;;;;;;;;5049289;28;20134;-64
2021/09/11 14:42:33;;;;;;;3.58;2.15;;;;;;;;;;5030874;28;20107;-66
2021/09/11 14:45:17;;;;;;;2.08;1.75;;;;;;;;;;5049049;28;20072;-66
2021/09/11 14:47:44;;;;;;;4.05;2.10;;;;;;;;;;5049270;28;20052;-67